HST,Max TemperatureF,Mean TemperatureF,Min TemperatureF,Max Dew PointF,MeanDew PointF,Min DewpointF,Max Humidity, Mean Humidity, Min Humidity, Max Sea Level PressureIn, Mean Sea Level PressureIn, Min Sea Level PressureIn, Max VisibilityMiles, Mean VisibilityMiles, Min VisibilityMiles, Max Wind SpeedMPH, Mean Wind SpeedMPH, Max Gust SpeedMPH,PrecipitationIn, CloudCover, Events, WindDirDegrees
2013-11-1,82,77,72,72,70,68,79,74,69,30.13,30.09,30.02,10,9,1,29,16,36,0.17,5,Rain,54
2013-11-2,82,79,75,72,69,66,82,74,65,30.13,30.08,30.03,10,10,10,23,16,30,0.04,4,Rain,56
2013-11-3,82,78,74,70,68,66,82,72,62,30.12,30.07,30.03,10,10,10,24,15,29,0.07,3,Rain,53
2013-11-4,82,76,70,70,68,66,90,79,67,30.08,30.04,29.98,10,9,4,18,11,24,0.01,4,Rain,16
2013-11-5,82,77,71,70,69,68,93,79,65,30.04,30.01,29.96,10,9,2,17,9,22,0.13,4,Rain,344
2013-11-6,82,76,69,70,69,66,100,85,69,30.01,29.96,29.90,10,7,1,17,9,22,0.46,6,Rain,336
2013-11-7,80,74,67,72,69,64,97,88,79,30.01,29.97,29.91,10,10,2,16,9,23,0.04,5,Rain,27
2013-11-8,81,75,69,73,71,68,100,87,74,30.02,29.97,29.90,10,9,1,28,11,32,0.78,5,Rain,11
2013-11-9,80,76,71,72,70,67,93,84,74,29.96,29.92,29.88,10,9,2,29,18,35,0.51,7,Rain-Thunderstorm,48
2013-11-10,78,75,71,68,64,56,84,71,57,30.04,29.96,29.90,10,9,2,35,25,43,0.24,7,Rain,36
2013-11-11,79,73,66,61,59,57,70,59,48,30.03,29.99,29.94,10,10,10,26,17,31,0.02,4,,23
2013-11-12,76,69,62,63,61,57,90,77,64,30.05,30.00,29.95,10,10,6,24,8,30,0.02,4,Rain,322
2013-11-13,76,69,61,63,60,56,87,76,64,30.04,29.99,29.95,10,10,10,15,8,18,0.00,4,,310
2013-11-14,79,71,63,70,63,58,90,76,62,30.03,29.98,29.93,10,10,10,12,6,26,0.00,6,,359
2013-11-15,78,75,71,75,72,69,100,93,85,30.07,30.03,29.99,10,8,2,15,6,25,0.31,7,Rain,31
2013-11-16,81,77,73,74,72,70,100,87,74,30.09,30.04,29.98,10,10,9,16,10,24,0.00,5,,40
2013-11-17,82,76,69,72,70,69,100,83,65,30.02,29.96,29.91,10,10,10,8,7,8,T,5,,180
2013-11-18,81,75,68,72,69,66,100,85,69,29.98,29.92,29.86,10,10,9,10,6,15,T,3,Rain,237
2013-11-19,81,73,65,72,68,64,100,85,69,29.98,29.94,29.87,10,10,10,13,6,20,0.00,2,,243
2013-11-20,82,75,68,73,70,67,100,85,69,30.01,29.95,29.89,10,10,8,16,6,18,0.09,2,Rain,239
2013-11-21,81,74,67,71,67,64,100,84,67,30.03,29.99,29.93,10,10,10,13,6,25,T,1,,248
2013-11-22,82,74,65,70,66,63,87,76,65,30.06,30.01,29.97,10,10,10,21,10,26,T,2,,332
2013-11-23,79,73,66,66,63,57,100,79,58,30.06,30.02,29.96,10,10,10,22,10,25,0.01,5,Rain,350
2013-11-24,79,71,63,65,61,57,84,71,58,30.05,29.99,29.94,10,10,10,15,9,20,0.00,3,,37
2013-11-25,80,76,72,65,63,62,79,69,58,30.10,30.03,29.99,10,10,10,17,12,22,0.00,2,,66
2013-11-26,81,78,74,70,67,60,82,72,62,30.13,30.07,30.01,10,10,10,18,12,21,0.00,4,,73
2013-11-27,81,74,67,67,65,63,90,74,58,30.11,30.04,29.97,10,10,10,10,8,13,0.00,2,,72
2013-11-28,80,73,65,68,65,62,87,75,62,30.03,29.98,29.93,10,10,10,9,6,10,0.00,1,,249
2013-11-29,82,75,68,72,68,64,93,80,67,29.95,29.91,29.85,10,9,0,5,9,7,0.69,5,Fog-Rain,184
2013-11-30,79,75,71,73,71,63,94,81,68,29.93,29.88,29.83,10,9,2,27,18,37,0.00,7,Rain,177